sensor_id;sensor_type;location;lat;lon;timestamp;P1;durP1;ratioP1;P2;durP2;ratioP2
66597;SDS011;57424;53.128;6.406;2024-03-23T00:51:48;10.60;;;3.10;;
66597;SDS011;57424;53.128;6.406;2024-03-23T00:54:14;9.93;;;2.92;;
66597;SDS011;57424;53.128;6.406;2024-03-23T00:56:40;10.98;;;4.05;;
66597;SDS011;57424;53.128;6.406;2024-03-23T00:59:05;9.00;;;2.95;;
66597;SDS011;57424;53.128;6.406;2024-03-23T01:01:31;6.25;;;3.00;;
66597;SDS011;57424;53.128;6.406;2024-03-23T01:03:56;11.48;;;3.42;;
66597;SDS011;57424;53.128;6.406;2024-03-23T01:06:22;9.23;;;3.45;;
66597;SDS011;57424;53.128;6.406;2024-03-23T01:08:47;8.75;;;3.30;;
66597;SDS011;57424;53.128;6.406;2024-03-23T01:11:13;9.25;;;3.10;;
66597;SDS011;57424;53.128;6.406;2024-03-23T01:13:38;10.98;;;3.05;;
66597;SDS011;57424;53.128;6.406;2024-03-23T01:16:04;11.02;;;3.55;;
66597;SDS011;57424;53.128;6.406;2024-03-23T01:18:30;10.23;;;3.00;;
66597;SDS011;57424;53.128;6.406;2024-03-23T01:20:55;10.50;;;2.97;;
66597;SDS011;57424;53.128;6.406;2024-03-23T01:23:21;9.90;;;3.08;;
66597;SDS011;57424;53.128;6.406;2024-03-23T01:25:52;13.60;;;4.03;;
66597;SDS011;57424;53.128;6.406;2024-03-23T01:28:19;11.93;;;3.30;;
66597;SDS011;57424;53.128;6.406;2024-03-23T01:30:48;10.85;;;3.10;;
66597;SDS011;57424;53.128;6.406;2024-03-23T01:33:14;8.52;;;2.85;;
66597;SDS011;57424;53.128;6.406;2024-03-23T01:35:39;11.35;;;3.30;;
66597;SDS011;57424;53.128;6.406;2024-03-23T01:38:05;10.20;;;3.05;;
66597;SDS011;57424;53.128;6.406;2024-03-23T01:40:31;11.55;;;3.03;;
66597;SDS011;57424;53.128;6.406;2024-03-23T01:42:57;6.82;;;3.13;;
66597;SDS011;57424;53.128;6.406;2024-03-23T01:45:27;11.32;;;3.50;;
66597;SDS011;57424;53.128;6.406;2024-03-23T01:47:52;9.10;;;3.63;;
66597;SDS011;57424;53.128;6.406;2024-03-23T01:50:18;12.60;;;3.17;;
66597;SDS011;57424;53.128;6.406;2024-03-23T01:52:48;9.30;;;2.83;;
66597;SDS011;57424;53.128;6.406;2024-03-23T01:55:14;7.85;;;2.83;;
66597;SDS011;57424;53.128;6.406;2024-03-23T01:57:40;11.95;;;3.05;;
66597;SDS011;57424;53.128;6.406;2024-03-23T02:00:06;9.20;;;3.30;;
66597;SDS011;57424;53.128;6.406;2024-03-23T02:02:32;11.30;;;3.47;;
66597;SDS011;57424;53.128;6.406;2024-03-23T02:04:57;7.38;;;2.97;;
66597;SDS011;57424;53.128;6.406;2024-03-23T02:07:23;10.80;;;3.03;;
66597;SDS011;57424;53.128;6.406;2024-03-23T02:09:50;7.13;;;2.60;;
66597;SDS011;57424;53.128;6.406;2024-03-23T02:12:17;10.50;;;3.17;;
66597;SDS011;57424;53.128;6.406;2024-03-23T02:14:43;9.52;;;3.15;;
66597;SDS011;57424;53.128;6.406;2024-03-23T02:17:08;8.85;;;3.08;;
66597;SDS011;57424;53.128;6.406;2024-03-23T02:19:34;7.63;;;3.00;;
66597;SDS011;57424;53.128;6.406;2024-03-23T02:22:00;7.53;;;2.67;;
66597;SDS011;57424;53.128;6.406;2024-03-23T02:24:25;9.13;;;3.38;;
66597;SDS011;57424;53.128;6.406;2024-03-23T02:26:51;8.13;;;2.58;;
66597;SDS011;57424;53.128;6.406;2024-03-23T02:29:16;9.98;;;3.03;;
66597;SDS011;57424;53.128;6.406;2024-03-23T02:31:42;10.05;;;3.17;;
66597;SDS011;57424;53.128;6.406;2024-03-23T02:34:08;7.95;;;2.50;;
66597;SDS011;57424;53.128;6.406;2024-03-23T02:36:33;10.95;;;3.17;;
66597;SDS011;57424;53.128;6.406;2024-03-23T02:38:59;8.55;;;2.40;;
66597;SDS011;57424;53.128;6.406;2024-03-23T02:41:24;6.35;;;2.70;;
66597;SDS011;57424;53.128;6.406;2024-03-23T02:43:50;9.38;;;3.10;;
66597;SDS011;57424;53.128;6.406;2024-03-23T02:46:16;7.35;;;2.90;;
66597;SDS011;57424;53.128;6.406;2024-03-23T02:48:41;10.05;;;2.90;;
66597;SDS011;57424;53.128;6.406;2024-03-23T02:51:07;7.57;;;3.08;;
66597;SDS011;57424;53.128;6.406;2024-03-23T02:53:33;8.90;;;3.03;;
66597;SDS011;57424;53.128;6.406;2024-03-23T02:55:59;7.65;;;2.92;;
66597;SDS011;57424;53.128;6.406;2024-03-23T02:58:24;8.68;;;2.75;;
66597;SDS011;57424;53.128;6.406;2024-03-23T03:00:50;10.45;;;2.97;;
66597;SDS011;57424;53.128;6.406;2024-03-23T03:03:15;10.07;;;3.05;;
66597;SDS011;57424;53.128;6.406;2024-03-23T03:05:41;10.00;;;3.25;;
66597;SDS011;57424;53.128;6.406;2024-03-23T03:08:06;13.15;;;3.03;;
66597;SDS011;57424;53.128;6.406;2024-03-23T03:10:32;10.95;;;3.08;;
66597;SDS011;57424;53.128;6.406;2024-03-23T03:13:00;7.73;;;2.93;;
66597;SDS011;57424;53.128;6.406;2024-03-23T03:15:25;5.45;;;2.28;;
66597;SDS011;57424;53.128;6.406;2024-03-23T03:17:51;8.77;;;2.85;;
66597;SDS011;57424;53.128;6.406;2024-03-23T03:20:17;5.50;;;2.38;;
66597;SDS011;57424;53.128;6.406;2024-03-23T03:22:43;7.55;;;2.95;;
66597;SDS011;57424;53.128;6.406;2024-03-23T03:25:08;7.80;;;2.63;;
66597;SDS011;57424;53.128;6.406;2024-03-23T03:27:34;8.85;;;3.10;;
66597;SDS011;57424;53.128;6.406;2024-03-23T03:30:00;9.18;;;3.08;;
66597;SDS011;57424;53.128;6.406;2024-03-23T03:32:28;8.70;;;2.72;;
66597;SDS011;57424;53.128;6.406;2024-03-23T03:34:54;8.45;;;2.85;;
66597;SDS011;57424;53.128;6.406;2024-03-23T03:37:19;9.68;;;3.35;;
66597;SDS011;57424;53.128;6.406;2024-03-23T03:39:45;7.47;;;2.80;;
66597;SDS011;57424;53.128;6.406;2024-03-23T03:42:11;5.53;;;2.50;;
66597;SDS011;57424;53.128;6.406;2024-03-23T03:44:36;7.60;;;2.55;;
66597;SDS011;57424;53.128;6.406;2024-03-23T03:47:02;6.93;;;2.35;;
66597;SDS011;57424;53.128;6.406;2024-03-23T03:49:27;7.35;;;2.72;;
66597;SDS011;57424;53.128;6.406;2024-03-23T03:51:53;7.78;;;2.90;;
66597;SDS011;57424;53.128;6.406;2024-03-23T03:54:19;9.48;;;2.90;;
66597;SDS011;57424;53.128;6.406;2024-03-23T03:56:44;9.95;;;2.72;;
66597;SDS011;57424;53.128;6.406;2024-03-23T03:59:10;7.50;;;2.25;;
66597;SDS011;57424;53.128;6.406;2024-03-23T04:01:35;7.30;;;2.65;;
66597;SDS011;57424;53.128;6.406;2024-03-23T04:04:01;8.05;;;3.22;;
66597;SDS011;57424;53.128;6.406;2024-03-23T04:06:26;7.20;;;2.70;;
66597;SDS011;57424;53.128;6.406;2024-03-23T04:08:52;9.35;;;2.78;;
66597;SDS011;57424;53.128;6.406;2024-03-23T04:11:17;6.90;;;2.63;;
66597;SDS011;57424;53.128;6.406;2024-03-23T04:13:43;6.68;;;2.50;;
66597;SDS011;57424;53.128;6.406;2024-03-23T04:16:08;6.93;;;2.47;;
66597;SDS011;57424;53.128;6.406;2024-03-23T04:18:34;9.55;;;2.60;;
66597;SDS011;57424;53.128;6.406;2024-03-23T04:21:00;10.73;;;3.00;;
66597;SDS011;57424;53.128;6.406;2024-03-23T04:23:26;5.35;;;2.40;;
66597;SDS011;57424;53.128;6.406;2024-03-23T04:25:51;8.18;;;2.75;;
66597;SDS011;57424;53.128;6.406;2024-03-23T04:28:18;5.28;;;2.40;;
66597;SDS011;57424;53.128;6.406;2024-03-23T04:30:44;8.77;;;2.83;;
66597;SDS011;57424;53.128;6.406;2024-03-23T04:33:10;9.55;;;2.80;;
66597;SDS011;57424;53.128;6.406;2024-03-23T04:35:35;8.07;;;2.53;;
66597;SDS011;57424;53.128;6.406;2024-03-23T04:38:01;8.10;;;2.38;;
66597;SDS011;57424;53.128;6.406;2024-03-23T04:40:27;7.35;;;2.30;;
66597;SDS011;57424;53.128;6.406;2024-03-23T04:42:52;9.20;;;2.60;;
66597;SDS011;57424;53.128;6.406;2024-03-23T04:45:18;5.28;;;2.53;;
66597;SDS011;57424;53.128;6.406;2024-03-23T04:47:44;7.97;;;2.47;;
66597;SDS011;57424;53.128;6.406;2024-03-23T04:50:09;8.23;;;2.70;;
66597;SDS011;57424;53.128;6.406;2024-03-23T04:55:03;5.50;;;2.50;;
66597;SDS011;57424;53.128;6.406;2024-03-23T04:57:29;6.28;;;2.33;;
66597;SDS011;57424;53.128;6.406;2024-03-23T04:59:55;6.32;;;2.80;;
66597;SDS011;57424;53.128;6.406;2024-03-23T05:02:20;8.65;;;2.40;;
66597;SDS011;57424;53.128;6.406;2024-03-23T05:04:46;7.47;;;2.15;;
66597;SDS011;57424;53.128;6.406;2024-03-23T05:07:12;7.13;;;2.45;;
66597;SDS011;57424;53.128;6.406;2024-03-23T05:09:37;5.55;;;2.35;;
66597;SDS011;57424;53.128;6.406;2024-03-23T05:12:03;7.75;;;2.67;;
66597;SDS011;57424;53.128;6.406;2024-03-23T05:14:29;8.57;;;2.80;;
66597;SDS011;57424;53.128;6.406;2024-03-23T05:16:54;9.40;;;2.65;;
66597;SDS011;57424;53.128;6.406;2024-03-23T05:19:21;8.23;;;2.30;;
66597;SDS011;57424;53.128;6.406;2024-03-23T05:21:47;8.80;;;2.60;;
66597;SDS011;57424;53.128;6.406;2024-03-23T05:24:12;5.95;;;2.58;;
66597;SDS011;57424;53.128;6.406;2024-03-23T05:26:38;8.35;;;2.45;;
66597;SDS011;57424;53.128;6.406;2024-03-23T05:29:03;10.60;;;2.63;;
66597;SDS011;57424;53.128;6.406;2024-03-23T05:31:31;9.20;;;2.33;;
66597;SDS011;57424;53.128;6.406;2024-03-23T05:33:57;6.85;;;2.03;;
66597;SDS011;57424;53.128;6.406;2024-03-23T05:36:23;5.93;;;2.50;;
66597;SDS011;57424;53.128;6.406;2024-03-23T05:38:51;8.65;;;3.00;;
66597;SDS011;57424;53.128;6.406;2024-03-23T05:41:17;7.35;;;2.65;;
66597;SDS011;57424;53.128;6.406;2024-03-23T05:43:42;7.90;;;2.30;;
66597;SDS011;57424;53.128;6.406;2024-03-23T05:46:08;7.28;;;2.25;;
66597;SDS011;57424;53.128;6.406;2024-03-23T05:48:34;5.45;;;2.47;;
66597;SDS011;57424;53.128;6.406;2024-03-23T05:51:00;7.75;;;2.42;;
66597;SDS011;57424;53.128;6.406;2024-03-23T05:53:25;9.57;;;3.42;;
66597;SDS011;57424;53.128;6.406;2024-03-23T05:55:51;7.93;;;2.53;;
66597;SDS011;57424;53.128;6.406;2024-03-23T05:58:28;6.85;;;2.75;;
66597;SDS011;57424;53.128;6.406;2024-03-23T06:01:03;10.15;;;2.45;;
66597;SDS011;57424;53.128;6.406;2024-03-23T06:03:28;6.60;;;2.30;;
66597;SDS011;57424;53.128;6.406;2024-03-23T06:05:54;7.57;;;2.20;;
66597;SDS011;57424;53.128;6.406;2024-03-23T06:08:21;3.78;;;1.60;;
66597;SDS011;57424;53.128;6.406;2024-03-23T06:10:47;5.78;;;2.20;;
66597;SDS011;57424;53.128;6.406;2024-03-23T06:13:12;6.65;;;1.58;;
66597;SDS011;57424;53.128;6.406;2024-03-23T06:15:39;5.15;;;1.90;;
66597;SDS011;57424;53.128;6.406;2024-03-23T06:18:04;9.10;;;2.35;;
66597;SDS011;57424;53.128;6.406;2024-03-23T06:20:31;4.63;;;1.63;;
66597;SDS011;57424;53.128;6.406;2024-03-23T06:22:57;8.45;;;1.85;;
66597;SDS011;57424;53.128;6.406;2024-03-23T06:25:23;5.82;;;2.00;;
66597;SDS011;57424;53.128;6.406;2024-03-23T06:27:48;5.47;;;1.52;;
66597;SDS011;57424;53.128;6.406;2024-03-23T06:30:14;4.70;;;1.60;;
66597;SDS011;57424;53.128;6.406;2024-03-23T06:32:39;4.85;;;1.80;;
66597;SDS011;57424;53.128;6.406;2024-03-23T06:35:05;7.65;;;1.88;;
66597;SDS011;57424;53.128;6.406;2024-03-23T06:37:33;5.18;;;1.90;;
66597;SDS011;57424;53.128;6.406;2024-03-23T06:40:00;4.13;;;1.60;;
66597;SDS011;57424;53.128;6.406;2024-03-23T06:42:26;3.60;;;1.50;;
66597;SDS011;57424;53.128;6.406;2024-03-23T06:44:51;5.43;;;1.73;;
66597;SDS011;57424;53.128;6.406;2024-03-23T06:47:17;5.28;;;1.88;;
66597;SDS011;57424;53.128;6.406;2024-03-23T06:49:42;5.28;;;1.75;;
66597;SDS011;57424;53.128;6.406;2024-03-23T06:52:08;5.30;;;1.80;;
66597;SDS011;57424;53.128;6.406;2024-03-23T06:54:33;4.68;;;1.63;;
66597;SDS011;57424;53.128;6.406;2024-03-23T06:56:59;3.97;;;1.42;;
66597;SDS011;57424;53.128;6.406;2024-03-23T06:59:24;4.35;;;1.90;;
66597;SDS011;57424;53.128;6.406;2024-03-23T07:01:50;4.78;;;1.70;;
66597;SDS011;57424;53.128;6.406;2024-03-23T07:04:15;4.57;;;1.52;;
66597;SDS011;57424;53.128;6.406;2024-03-23T07:06:44;6.13;;;1.83;;
66597;SDS011;57424;53.128;6.406;2024-03-23T07:09:11;5.43;;;1.80;;
66597;SDS011;57424;53.128;6.406;2024-03-23T07:11:36;5.10;;;1.67;;
66597;SDS011;57424;53.128;6.406;2024-03-23T07:14:03;5.55;;;1.77;;
66597;SDS011;57424;53.128;6.406;2024-03-23T07:16:28;6.85;;;2.05;;
66597;SDS011;57424;53.128;6.406;2024-03-23T07:18:54;3.60;;;1.60;;
66597;SDS011;57424;53.128;6.406;2024-03-23T07:21:20;4.22;;;1.55;;
66597;SDS011;57424;53.128;6.406;2024-03-23T07:23:46;3.88;;;1.73;;
66597;SDS011;57424;53.128;6.406;2024-03-23T07:26:11;4.93;;;1.92;;
66597;SDS011;57424;53.128;6.406;2024-03-23T07:28:37;4.30;;;1.67;;
66597;SDS011;57424;53.128;6.406;2024-03-23T07:31:06;4.40;;;1.50;;
66597;SDS011;57424;53.128;6.406;2024-03-23T07:33:34;2.42;;;1.40;;
66597;SDS011;57424;53.128;6.406;2024-03-23T07:36:00;2.35;;;1.52;;
66597;SDS011;57424;53.128;6.406;2024-03-23T07:38:27;3.38;;;1.40;;
66597;SDS011;57424;53.128;6.406;2024-03-23T07:41:06;3.95;;;1.58;;
66597;SDS011;57424;53.128;6.406;2024-03-23T07:43:37;3.47;;;1.60;;
66597;SDS011;57424;53.128;6.406;2024-03-23T07:46:03;3.47;;;1.50;;
66597;SDS011;57424;53.128;6.406;2024-03-23T07:48:29;5.45;;;1.50;;
66597;SDS011;57424;53.128;6.406;2024-03-23T07:53:24;5.00;;;2.05;;
66597;SDS011;57424;53.128;6.406;2024-03-23T07:56:00;4.63;;;1.65;;
66597;SDS011;57424;53.128;6.406;2024-03-23T07:58:27;3.40;;;1.60;;
66597;SDS011;57424;53.128;6.406;2024-03-23T08:00:53;3.47;;;1.30;;
66597;SDS011;57424;53.128;6.406;2024-03-23T08:03:19;4.85;;;1.80;;
66597;SDS011;57424;53.128;6.406;2024-03-23T08:05:45;4.70;;;1.35;;
66597;SDS011;57424;53.128;6.406;2024-03-23T08:08:11;4.93;;;1.90;;
66597;SDS011;57424;53.128;6.406;2024-03-23T08:10:37;3.08;;;1.58;;
66597;SDS011;57424;53.128;6.406;2024-03-23T08:13:11;4.95;;;1.90;;
66597;SDS011;57424;53.128;6.406;2024-03-23T08:15:37;4.50;;;1.70;;
66597;SDS011;57424;53.128;6.406;2024-03-23T08:18:02;4.47;;;1.95;;
66597;SDS011;57424;53.128;6.406;2024-03-23T08:20:28;4.18;;;1.60;;
66597;SDS011;57424;53.128;6.406;2024-03-23T08:22:54;3.75;;;1.77;;
66597;SDS011;57424;53.128;6.406;2024-03-23T08:25:19;3.97;;;1.60;;
66597;SDS011;57424;53.128;6.406;2024-03-23T08:27:45;4.30;;;1.95;;
66597;SDS011;57424;53.128;6.406;2024-03-23T08:30:10;4.30;;;1.92;;
66597;SDS011;57424;53.128;6.406;2024-03-23T08:32:36;4.35;;;1.80;;
66597;SDS011;57424;53.128;6.406;2024-03-23T08:35:02;5.50;;;2.03;;
66597;SDS011;57424;53.128;6.406;2024-03-23T08:37:27;7.45;;;2.15;;
66597;SDS011;57424;53.128;6.406;2024-03-23T08:39:53;4.55;;;2.05;;
66597;SDS011;57424;53.128;6.406;2024-03-23T08:42:18;5.65;;;1.80;;
66597;SDS011;57424;53.128;6.406;2024-03-23T08:44:44;3.92;;;1.85;;
66597;SDS011;57424;53.128;6.406;2024-03-23T08:47:14;4.82;;;2.17;;
66597;SDS011;57424;53.128;6.406;2024-03-23T08:49:40;5.95;;;2.10;;
66597;SDS011;57424;53.128;6.406;2024-03-23T08:52:06;4.93;;;2.00;;
66597;SDS011;57424;53.128;6.406;2024-03-23T08:54:32;7.60;;;2.17;;
66597;SDS011;57424;53.128;6.406;2024-03-23T08:56:57;6.22;;;2.30;;
66597;SDS011;57424;53.128;6.406;2024-03-23T08:59:23;8.00;;;2.08;;
66597;SDS011;57424;53.128;6.406;2024-03-23T09:01:48;5.30;;;2.30;;
66597;SDS011;57424;53.128;6.406;2024-03-23T09:04:14;4.15;;;2.17;;
66597;SDS011;57424;53.128;6.406;2024-03-23T09:06:42;5.20;;;2.05;;
66597;SDS011;57424;53.128;6.406;2024-03-23T09:09:08;6.95;;;2.35;;
66597;SDS011;57424;53.128;6.406;2024-03-23T09:11:33;6.32;;;2.10;;
66597;SDS011;57424;53.128;6.406;2024-03-23T09:13:59;4.95;;;2.00;;
66597;SDS011;57424;53.128;6.406;2024-03-23T09:16:24;5.43;;;2.38;;
66597;SDS011;57424;53.128;6.406;2024-03-23T09:18:50;5.13;;;2.40;;
66597;SDS011;57424;53.128;6.406;2024-03-23T09:21:16;8.00;;;2.20;;
66597;SDS011;57424;53.128;6.406;2024-03-23T09:23:45;4.20;;;2.00;;
66597;SDS011;57424;53.128;6.406;2024-03-23T09:26:11;8.00;;;2.90;;
66597;SDS011;57424;53.128;6.406;2024-03-23T09:28:37;9.82;;;2.38;;
66597;SDS011;57424;53.128;6.406;2024-03-23T09:31:06;6.70;;;2.70;;
66597;SDS011;57424;53.128;6.406;2024-03-23T09:33:33;4.03;;;2.28;;
66597;SDS011;57424;53.128;6.406;2024-03-23T09:36:05;5.05;;;2.25;;
66597;SDS011;57424;53.128;6.406;2024-03-23T09:38:31;7.13;;;2.28;;
66597;SDS011;57424;53.128;6.406;2024-03-23T09:40:57;6.00;;;2.03;;
66597;SDS011;57424;53.128;6.406;2024-03-23T09:43:23;4.60;;;2.00;;
66597;SDS011;57424;53.128;6.406;2024-03-23T09:45:49;4.35;;;2.10;;
66597;SDS011;57424;53.128;6.406;2024-03-23T09:48:15;6.47;;;2.38;;
66597;SDS011;57424;53.128;6.406;2024-03-23T09:50:42;7.32;;;2.42;;
66597;SDS011;57424;53.128;6.406;2024-03-23T09:53:10;6.88;;;2.28;;
66597;SDS011;57424;53.128;6.406;2024-03-23T09:55:37;5.28;;;1.90;;
66597;SDS011;57424;53.128;6.406;2024-03-23T09:58:03;5.57;;;2.30;;
66597;SDS011;57424;53.128;6.406;2024-03-23T10:00:33;4.93;;;2.10;;
66597;SDS011;57424;53.128;6.406;2024-03-23T10:02:59;5.47;;;2.42;;
66597;SDS011;57424;53.128;6.406;2024-03-23T10:05:29;7.07;;;2.50;;
66597;SDS011;57424;53.128;6.406;2024-03-23T10:10:39;6.75;;;2.05;;
66597;SDS011;57424;53.128;6.406;2024-03-23T10:13:08;7.22;;;2.67;;
66597;SDS011;57424;53.128;6.406;2024-03-23T10:15:34;5.20;;;2.38;;
66597;SDS011;57424;53.128;6.406;2024-03-23T10:18:20;8.15;;;2.33;;
66597;SDS011;57424;53.128;6.406;2024-03-23T10:20:50;7.15;;;2.72;;
66597;SDS011;57424;53.128;6.406;2024-03-23T10:23:38;7.15;;;2.40;;
66597;SDS011;57424;53.128;6.406;2024-03-23T10:26:17;4.15;;;2.17;;
66597;SDS011;57424;53.128;6.406;2024-03-23T10:31:30;6.68;;;2.88;;
66597;SDS011;57424;53.128;6.406;2024-03-23T10:33:56;5.15;;;1.90;;
66597;SDS011;57424;53.128;6.406;2024-03-23T10:36:23;8.02;;;2.85;;
66597;SDS011;57424;53.128;6.406;2024-03-23T10:41:17;6.55;;;2.25;;
66597;SDS011;57424;53.128;6.406;2024-03-23T10:43:44;8.65;;;2.38;;
66597;SDS011;57424;53.128;6.406;2024-03-23T10:46:11;7.13;;;2.30;;
66597;SDS011;57424;53.128;6.406;2024-03-23T10:48:37;4.40;;;2.50;;
66597;SDS011;57424;53.128;6.406;2024-03-23T10:51:03;5.13;;;2.10;;
66597;SDS011;57424;53.128;6.406;2024-03-23T10:53:32;8.38;;;2.35;;
66597;SDS011;57424;53.128;6.406;2024-03-23T10:55:58;6.85;;;2.25;;
66597;SDS011;57424;53.128;6.406;2024-03-23T10:58:44;6.63;;;2.00;;
66597;SDS011;57424;53.128;6.406;2024-03-23T11:03:39;6.30;;;2.10;;
66597;SDS011;57424;53.128;6.406;2024-03-23T11:06:09;4.38;;;2.13;;
66597;SDS011;57424;53.128;6.406;2024-03-23T11:08:38;7.82;;;2.00;;
66597;SDS011;57424;53.128;6.406;2024-03-23T11:11:21;6.22;;;2.15;;
66597;SDS011;57424;53.128;6.406;2024-03-23T11:13:51;6.20;;;2.50;;
66597;SDS011;57424;53.128;6.406;2024-03-23T11:16:22;7.00;;;2.08;;
66597;SDS011;57424;53.128;6.406;2024-03-23T11:24:23;4.85;;;1.98;;
66597;SDS011;57424;53.128;6.406;2024-03-23T11:26:49;5.28;;;2.05;;
66597;SDS011;57424;53.128;6.406;2024-03-23T11:29:15;5.40;;;1.95;;
66597;SDS011;57424;53.128;6.406;2024-03-23T11:31:45;6.18;;;2.10;;
66597;SDS011;57424;53.128;6.406;2024-03-23T11:34:15;7.05;;;2.95;;
66597;SDS011;57424;53.128;6.406;2024-03-23T11:36:41;5.90;;;2.50;;
66597;SDS011;57424;53.128;6.406;2024-03-23T11:39:14;6.07;;;2.72;;
66597;SDS011;57424;53.128;6.406;2024-03-23T11:44:22;6.18;;;2.60;;
66597;SDS011;57424;53.128;6.406;2024-03-23T11:46:50;8.18;;;2.72;;
66597;SDS011;57424;53.128;6.406;2024-03-23T11:51:49;6.93;;;2.67;;
66597;SDS011;57424;53.128;6.406;2024-03-23T11:54:16;7.20;;;2.65;;
66597;SDS011;57424;53.128;6.406;2024-03-23T11:56:55;6.45;;;2.85;;
66597;SDS011;57424;53.128;6.406;2024-03-23T11:59:34;5.55;;;2.63;;
66597;SDS011;57424;53.128;6.406;2024-03-23T12:02:00;6.35;;;2.92;;
66597;SDS011;57424;53.128;6.406;2024-03-23T12:04:31;5.07;;;2.58;;
66597;SDS011;57424;53.128;6.406;2024-03-23T12:09:45;7.18;;;3.13;;
66597;SDS011;57424;53.128;6.406;2024-03-23T12:12:31;7.63;;;2.83;;
66597;SDS011;57424;53.128;6.406;2024-03-23T12:15:09;7.43;;;2.70;;
66597;SDS011;57424;53.128;6.406;2024-03-23T12:17:36;6.07;;;2.42;;
66597;SDS011;57424;53.128;6.406;2024-03-23T12:20:01;7.72;;;3.03;;
66597;SDS011;57424;53.128;6.406;2024-03-23T12:22:27;6.60;;;3.05;;
66597;SDS011;57424;53.128;6.406;2024-03-23T12:24:54;7.97;;;2.95;;
66597;SDS011;57424;53.128;6.406;2024-03-23T12:27:20;7.53;;;3.65;;
66597;SDS011;57424;53.128;6.406;2024-03-23T12:29:45;7.45;;;3.00;;
66597;SDS011;57424;53.128;6.406;2024-03-23T12:32:12;5.03;;;2.72;;
66597;SDS011;57424;53.128;6.406;2024-03-23T12:34:38;7.13;;;2.75;;
66597;SDS011;57424;53.128;6.406;2024-03-23T12:37:04;5.07;;;2.60;;
66597;SDS011;57424;53.128;6.406;2024-03-23T12:39:31;4.80;;;2.60;;
66597;SDS011;57424;53.128;6.406;2024-03-23T12:41:57;6.35;;;2.55;;
66597;SDS011;57424;53.128;6.406;2024-03-23T12:44:22;5.22;;;2.72;;
66597;SDS011;57424;53.128;6.406;2024-03-23T12:46:48;7.28;;;2.90;;
66597;SDS011;57424;53.128;6.406;2024-03-23T12:49:13;5.22;;;2.70;;
66597;SDS011;57424;53.128;6.406;2024-03-23T12:51:39;6.57;;;2.97;;
66597;SDS011;57424;53.128;6.406;2024-03-23T12:54:13;3.90;;;2.30;;
66597;SDS011;57424;53.128;6.406;2024-03-23T12:56:38;4.57;;;2.20;;
66597;SDS011;57424;53.128;6.406;2024-03-23T12:59:04;5.03;;;2.53;;
66597;SDS011;57424;53.128;6.406;2024-03-23T13:01:30;5.05;;;2.40;;
66597;SDS011;57424;53.128;6.406;2024-03-23T13:03:56;4.63;;;2.50;;
66597;SDS011;57424;53.128;6.406;2024-03-23T13:06:24;7.00;;;3.00;;
66597;SDS011;57424;53.128;6.406;2024-03-23T13:08:49;4.20;;;2.38;;
66597;SDS011;57424;53.128;6.406;2024-03-23T13:11:15;4.28;;;2.42;;
66597;SDS011;57424;53.128;6.406;2024-03-23T13:13:41;6.18;;;2.92;;
66597;SDS011;57424;53.128;6.406;2024-03-23T13:16:07;5.72;;;2.30;;
66597;SDS011;57424;53.128;6.406;2024-03-23T13:18:32;6.50;;;3.10;;
66597;SDS011;57424;53.128;6.406;2024-03-23T13:20:58;6.63;;;2.47;;
66597;SDS011;57424;53.128;6.406;2024-03-23T13:23:24;5.43;;;2.75;;
66597;SDS011;57424;53.128;6.406;2024-03-23T13:25:53;8.23;;;2.70;;
66597;SDS011;57424;53.128;6.406;2024-03-23T13:28:20;4.50;;;2.17;;
66597;SDS011;57424;53.128;6.406;2024-03-23T13:30:52;5.72;;;2.67;;
66597;SDS011;57424;53.128;6.406;2024-03-23T13:33:18;6.05;;;2.65;;
66597;SDS011;57424;53.128;6.406;2024-03-23T13:35:54;4.07;;;2.28;;
66597;SDS011;57424;53.128;6.406;2024-03-23T13:38:21;4.45;;;2.17;;
66597;SDS011;57424;53.128;6.406;2024-03-23T13:40:53;6.35;;;2.20;;
66597;SDS011;57424;53.128;6.406;2024-03-23T13:43:23;6.45;;;2.50;;
66597;SDS011;57424;53.128;6.406;2024-03-23T13:48:19;6.37;;;2.20;;
66597;SDS011;57424;53.128;6.406;2024-03-23T13:50:46;9.20;;;2.15;;
66597;SDS011;57424;53.128;6.406;2024-03-23T13:53:14;6.43;;;2.42;;
66597;SDS011;57424;53.128;6.406;2024-03-23T13:55:48;10.18;;;2.47;;
66597;SDS011;57424;53.128;6.406;2024-03-23T13:58:14;9.70;;;2.13;;
66597;SDS011;57424;53.128;6.406;2024-03-23T14:00:40;8.10;;;2.60;;
66597;SDS011;57424;53.128;6.406;2024-03-23T14:03:09;6.07;;;2.35;;
66597;SDS011;57424;53.128;6.406;2024-03-23T14:05:35;7.28;;;2.40;;
66597;SDS011;57424;53.128;6.406;2024-03-23T14:08:03;11.15;;;2.78;;
66597;SDS011;57424;53.128;6.406;2024-03-23T14:10:32;9.50;;;2.35;;
66597;SDS011;57424;53.128;6.406;2024-03-23T14:12:58;8.30;;;2.35;;
66597;SDS011;57424;53.128;6.406;2024-03-23T14:15:27;5.00;;;1.70;;
66597;SDS011;57424;53.128;6.406;2024-03-23T14:17:52;5.90;;;2.38;;
66597;SDS011;57424;53.128;6.406;2024-03-23T14:20:19;7.95;;;2.15;;
66597;SDS011;57424;53.128;6.406;2024-03-23T14:22:45;6.65;;;2.08;;
66597;SDS011;57424;53.128;6.406;2024-03-23T14:25:11;8.80;;;2.20;;
66597;SDS011;57424;53.128;6.406;2024-03-23T14:27:36;6.03;;;1.63;;
66597;SDS011;57424;53.128;6.406;2024-03-23T14:30:03;6.63;;;2.60;;
66597;SDS011;57424;53.128;6.406;2024-03-23T14:32:30;5.53;;;1.90;;
66597;SDS011;57424;53.128;6.406;2024-03-23T14:34:59;5.40;;;1.60;;
66597;SDS011;57424;53.128;6.406;2024-03-23T14:37:25;5.13;;;1.80;;
66597;SDS011;57424;53.128;6.406;2024-03-23T14:39:50;6.70;;;1.90;;
66597;SDS011;57424;53.128;6.406;2024-03-23T14:42:16;12.20;;;2.17;;
66597;SDS011;57424;53.128;6.406;2024-03-23T14:44:42;6.15;;;1.90;;
66597;SDS011;57424;53.128;6.406;2024-03-23T14:47:07;6.72;;;2.10;;
66597;SDS011;57424;53.128;6.406;2024-03-23T14:49:33;6.30;;;1.92;;
66597;SDS011;57424;53.128;6.406;2024-03-23T14:51:58;8.52;;;2.30;;
66597;SDS011;57424;53.128;6.406;2024-03-23T14:54:24;6.43;;;1.80;;
66597;SDS011;57424;53.128;6.406;2024-03-23T14:56:49;5.47;;;1.77;;
66597;SDS011;57424;53.128;6.406;2024-03-23T14:59:15;4.90;;;1.60;;
66597;SDS011;57424;53.128;6.406;2024-03-23T15:01:40;6.80;;;1.90;;
66597;SDS011;57424;53.128;6.406;2024-03-23T15:04:06;9.38;;;1.75;;
66597;SDS011;57424;53.128;6.406;2024-03-23T15:06:33;5.28;;;1.40;;
66597;SDS011;57424;53.128;6.406;2024-03-23T15:08:58;7.00;;;1.60;;
66597;SDS011;57424;53.128;6.406;2024-03-23T15:11:24;4.07;;;1.60;;
66597;SDS011;57424;53.128;6.406;2024-03-23T15:13:50;7.85;;;1.73;;
66597;SDS011;57424;53.128;6.406;2024-03-23T15:16:18;5.32;;;1.83;;
66597;SDS011;57424;53.128;6.406;2024-03-23T15:18:47;5.40;;;1.80;;
66597;SDS011;57424;53.128;6.406;2024-03-23T15:21:13;5.65;;;1.98;;
66597;SDS011;57424;53.128;6.406;2024-03-23T15:23:44;6.90;;;1.80;;
66597;SDS011;57424;53.128;6.406;2024-03-23T15:26:10;5.00;;;1.67;;
66597;SDS011;57424;53.128;6.406;2024-03-23T15:28:35;5.82;;;1.52;;
66597;SDS011;57424;53.128;6.406;2024-03-23T15:31:35;5.63;;;1.63;;
66597;SDS011;57424;53.128;6.406;2024-03-23T15:34:00;6.35;;;1.88;;
66597;SDS011;57424;53.128;6.406;2024-03-23T15:36:26;6.70;;;1.73;;
66597;SDS011;57424;53.128;6.406;2024-03-23T15:38:51;5.22;;;1.42;;
66597;SDS011;57424;53.128;6.406;2024-03-23T15:41:19;6.95;;;1.75;;
66597;SDS011;57424;53.128;6.406;2024-03-23T15:43:45;5.82;;;1.83;;
66597;SDS011;57424;53.128;6.406;2024-03-23T15:46:11;5.05;;;1.70;;
66597;SDS011;57424;53.128;6.406;2024-03-23T15:48:36;8.45;;;1.77;;
66597;SDS011;57424;53.128;6.406;2024-03-23T15:51:03;5.95;;;1.50;;
66597;SDS011;57424;53.128;6.406;2024-03-23T15:53:29;6.40;;;1.42;;
66597;SDS011;57424;53.128;6.406;2024-03-23T15:55:55;5.43;;;1.65;;
66597;SDS011;57424;53.128;6.406;2024-03-23T15:58:21;5.90;;;1.38;;
66597;SDS011;57424;53.128;6.406;2024-03-23T16:00:57;4.03;;;1.55;;
66597;SDS011;57424;53.128;6.406;2024-03-23T16:03:23;6.18;;;1.40;;
66597;SDS011;57424;53.128;6.406;2024-03-23T16:05:52;5.18;;;1.80;;